sensor_id;sensor_type;location;lat;lon;timestamp;temperature;humidity
62555;DHT22;48610;52.144;8.624;2024-03-08T00:00:24;5.40;99.90
62555;DHT22;48610;52.144;8.624;2024-03-08T00:03:24;5.30;99.90
62555;DHT22;48610;52.144;8.624;2024-03-08T00:06:25;5.30;99.90
62555;DHT22;48610;52.144;8.624;2024-03-08T00:09:25;5.30;99.90
62555;DHT22;48610;52.144;8.624;2024-03-08T00:12:27;5.30;99.90
62555;DHT22;48610;52.144;8.624;2024-03-08T00:15:28;5.30;99.90
62555;DHT22;48610;52.144;8.624;2024-03-08T00:18:29;5.30;99.90
62555;DHT22;48610;52.144;8.624;2024-03-08T00:21:30;5.30;99.90
62555;DHT22;48610;52.144;8.624;2024-03-08T00:24:31;5.30;99.90
62555;DHT22;48610;52.144;8.624;2024-03-08T00:27:32;5.30;99.90
62555;DHT22;48610;52.144;8.624;2024-03-08T00:30:32;5.30;99.90
62555;DHT22;48610;52.144;8.624;2024-03-08T00:33:33;5.30;99.90
62555;DHT22;48610;52.144;8.624;2024-03-08T00:36:33;5.20;99.90
62555;DHT22;48610;52.144;8.624;2024-03-08T00:39:34;5.20;99.90
62555;DHT22;48610;52.144;8.624;2024-03-08T00:42:35;5.00;99.90
62555;DHT22;48610;52.144;8.624;2024-03-08T00:45:35;4.90;99.90
62555;DHT22;48610;52.144;8.624;2024-03-08T00:48:37;4.80;99.90
62555;DHT22;48610;52.144;8.624;2024-03-08T00:51:38;4.70;99.90
62555;DHT22;48610;52.144;8.624;2024-03-08T00:54:39;4.70;99.90
62555;DHT22;48610;52.144;8.624;2024-03-08T00:57:39;4.80;99.90
62555;DHT22;48610;52.144;8.624;2024-03-08T01:00:41;4.90;99.90
62555;DHT22;48610;52.144;8.624;2024-03-08T01:03:44;4.80;99.90
62555;DHT22;48610;52.144;8.624;2024-03-08T01:06:45;4.90;99.90
62555;DHT22;48610;52.144;8.624;2024-03-08T01:09:47;4.90;99.90
62555;DHT22;48610;52.144;8.624;2024-03-08T01:12:48;4.80;99.90
62555;DHT22;48610;52.144;8.624;2024-03-08T01:15:48;4.40;99.90
62555;DHT22;48610;52.144;8.624;2024-03-08T01:18:49;4.10;99.90
62555;DHT22;48610;52.144;8.624;2024-03-08T01:21:50;4.20;99.90
62555;DHT22;48610;52.144;8.624;2024-03-08T01:24:51;4.30;99.90
62555;DHT22;48610;52.144;8.624;2024-03-08T01:27:52;4.40;99.90
62555;DHT22;48610;52.144;8.624;2024-03-08T01:30:54;4.50;99.90
62555;DHT22;48610;52.144;8.624;2024-03-08T01:33:58;4.70;99.90
62555;DHT22;48610;52.144;8.624;2024-03-08T01:36:59;4.80;99.90
62555;DHT22;48610;52.144;8.624;2024-03-08T01:39:59;4.80;99.90
62555;DHT22;48610;52.144;8.624;2024-03-08T01:43:24;4.80;99.90
62555;DHT22;48610;52.144;8.624;2024-03-08T01:46:25;4.80;99.90
62555;DHT22;48610;52.144;8.624;2024-03-08T01:49:28;4.80;99.90
62555;DHT22;48610;52.144;8.624;2024-03-08T01:52:29;4.90;99.90
62555;DHT22;48610;52.144;8.624;2024-03-08T01:55:31;4.90;99.90
62555;DHT22;48610;52.144;8.624;2024-03-08T01:58:32;4.60;99.90
62555;DHT22;48610;52.144;8.624;2024-03-08T02:01:34;4.70;99.90
62555;DHT22;48610;52.144;8.624;2024-03-08T02:04:35;4.70;99.90
62555;DHT22;48610;52.144;8.624;2024-03-08T02:07:36;4.70;99.90
62555;DHT22;48610;52.144;8.624;2024-03-08T02:10:38;4.80;99.90
62555;DHT22;48610;52.144;8.624;2024-03-08T02:13:39;4.60;99.90
62555;DHT22;48610;52.144;8.624;2024-03-08T02:16:39;4.60;99.90
62555;DHT22;48610;52.144;8.624;2024-03-08T02:19:40;4.50;99.90
62555;DHT22;48610;52.144;8.624;2024-03-08T02:22:40;4.40;99.90
62555;DHT22;48610;52.144;8.624;2024-03-08T02:25:41;4.30;99.90
62555;DHT22;48610;52.144;8.624;2024-03-08T02:28:45;4.30;99.90
62555;DHT22;48610;52.144;8.624;2024-03-08T02:31:46;4.20;99.90
62555;DHT22;48610;52.144;8.624;2024-03-08T02:34:46;4.10;99.90
62555;DHT22;48610;52.144;8.624;2024-03-08T02:37:47;4.10;99.90
62555;DHT22;48610;52.144;8.624;2024-03-08T02:40:50;4.10;99.90
62555;DHT22;48610;52.144;8.624;2024-03-08T02:43:51;4.20;99.90
62555;DHT22;48610;52.144;8.624;2024-03-08T02:46:51;4.20;99.90
62555;DHT22;48610;52.144;8.624;2024-03-08T02:49:55;4.20;99.90
62555;DHT22;48610;52.144;8.624;2024-03-08T02:52:56;4.20;99.90
62555;DHT22;48610;52.144;8.624;2024-03-08T02:55:56;4.30;99.90
62555;DHT22;48610;52.144;8.624;2024-03-08T02:58:57;4.30;99.90
62555;DHT22;48610;52.144;8.624;2024-03-08T03:01:58;4.20;99.90
62555;DHT22;48610;52.144;8.624;2024-03-08T03:04:58;4.30;99.90
62555;DHT22;48610;52.144;8.624;2024-03-08T03:07:59;4.40;99.90
62555;DHT22;48610;52.144;8.624;2024-03-08T03:10:59;4.50;99.90
62555;DHT22;48610;52.144;8.624;2024-03-08T03:14:00;4.50;99.90
62555;DHT22;48610;52.144;8.624;2024-03-08T03:17:00;4.40;99.90
62555;DHT22;48610;52.144;8.624;2024-03-08T03:20:05;4.30;99.90
62555;DHT22;48610;52.144;8.624;2024-03-08T03:23:10;4.20;99.90
62555;DHT22;48610;52.144;8.624;2024-03-08T03:26:14;4.10;99.90
62555;DHT22;48610;52.144;8.624;2024-03-08T03:29:17;4.00;99.90
62555;DHT22;48610;52.144;8.624;2024-03-08T03:32:18;4.10;99.90
62555;DHT22;48610;52.144;8.624;2024-03-08T03:35:19;4.00;99.90
62555;DHT22;48610;52.144;8.624;2024-03-08T03:38:20;4.00;99.90
62555;DHT22;48610;52.144;8.624;2024-03-08T03:41:23;4.00;99.90
62555;DHT22;48610;52.144;8.624;2024-03-08T03:44:24;4.00;99.90
62555;DHT22;48610;52.144;8.624;2024-03-08T03:47:25;3.90;99.90
62555;DHT22;48610;52.144;8.624;2024-03-08T03:50:27;4.00;99.90
62555;DHT22;48610;52.144;8.624;2024-03-08T03:53:27;4.10;99.90
62555;DHT22;48610;52.144;8.624;2024-03-08T03:56:28;4.10;99.90
62555;DHT22;48610;52.144;8.624;2024-03-08T03:59:29;4.10;99.90
62555;DHT22;48610;52.144;8.624;2024-03-08T04:02:29;4.10;99.90
62555;DHT22;48610;52.144;8.624;2024-03-08T04:05:30;4.10;99.90
62555;DHT22;48610;52.144;8.624;2024-03-08T04:08:32;4.00;99.90
62555;DHT22;48610;52.144;8.624;2024-03-08T04:11:34;4.10;99.90
62555;DHT22;48610;52.144;8.624;2024-03-08T04:14:35;4.10;99.90
62555;DHT22;48610;52.144;8.624;2024-03-08T04:17:36;4.20;99.90
62555;DHT22;48610;52.144;8.624;2024-03-08T04:20:37;4.30;99.90
62555;DHT22;48610;52.144;8.624;2024-03-08T04:23:38;4.30;99.90
62555;DHT22;48610;52.144;8.624;2024-03-08T04:26:38;4.20;99.90
62555;DHT22;48610;52.144;8.624;2024-03-08T04:29:39;4.10;99.90
62555;DHT22;48610;52.144;8.624;2024-03-08T04:32:39;4.10;99.90
62555;DHT22;48610;52.144;8.624;2024-03-08T04:35:41;3.90;99.90
62555;DHT22;48610;52.144;8.624;2024-03-08T04:38:42;3.80;99.90
62555;DHT22;48610;52.144;8.624;2024-03-08T04:41:43;3.80;99.90
62555;DHT22;48610;52.144;8.624;2024-03-08T04:44:46;3.80;99.90
62555;DHT22;48610;52.144;8.624;2024-03-08T04:47:47;3.80;99.90
62555;DHT22;48610;52.144;8.624;2024-03-08T04:50:47;4.00;99.90
62555;DHT22;48610;52.144;8.624;2024-03-08T04:53:48;4.00;99.90
62555;DHT22;48610;52.144;8.624;2024-03-08T04:56:48;4.00;99.90
62555;DHT22;48610;52.144;8.624;2024-03-08T04:59:49;4.00;99.90
62555;DHT22;48610;52.144;8.624;2024-03-08T05:02:49;4.00;99.90
62555;DHT22;48610;52.144;8.624;2024-03-08T05:05:53;3.90;99.90
62555;DHT22;48610;52.144;8.624;2024-03-08T05:08:54;3.80;99.90
62555;DHT22;48610;52.144;8.624;2024-03-08T05:11:54;3.80;99.90
62555;DHT22;48610;52.144;8.624;2024-03-08T05:14:55;3.70;99.90
62555;DHT22;48610;52.144;8.624;2024-03-08T05:17:55;3.60;99.90
62555;DHT22;48610;52.144;8.624;2024-03-08T05:20:58;3.70;99.90
62555;DHT22;48610;52.144;8.624;2024-03-08T05:23:58;3.60;99.90
62555;DHT22;48610;52.144;8.624;2024-03-08T05:26:59;3.60;99.90
62555;DHT22;48610;52.144;8.624;2024-03-08T05:30:00;3.50;99.90
62555;DHT22;48610;52.144;8.624;2024-03-08T05:33:01;3.60;99.90
62555;DHT22;48610;52.144;8.624;2024-03-08T05:36:01;3.70;99.90
62555;DHT22;48610;52.144;8.624;2024-03-08T05:39:02;3.70;99.90
62555;DHT22;48610;52.144;8.624;2024-03-08T05:42:06;3.70;99.90
62555;DHT22;48610;52.144;8.624;2024-03-08T05:45:09;3.80;99.90
62555;DHT22;48610;52.144;8.624;2024-03-08T05:48:13;3.70;99.90
62555;DHT22;48610;52.144;8.624;2024-03-08T05:51:14;3.70;99.90
62555;DHT22;48610;52.144;8.624;2024-03-08T05:54:14;3.70;99.90
62555;DHT22;48610;52.144;8.624;2024-03-08T05:57:15;3.70;99.90
62555;DHT22;48610;52.144;8.624;2024-03-08T06:00:15;3.60;99.90
62555;DHT22;48610;52.144;8.624;2024-03-08T06:03:16;3.60;99.90
62555;DHT22;48610;52.144;8.624;2024-03-08T06:06:17;3.50;99.90
62555;DHT22;48610;52.144;8.624;2024-03-08T06:09:18;3.60;99.90
62555;DHT22;48610;52.144;8.624;2024-03-08T06:12:23;3.60;99.90
62555;DHT22;48610;52.144;8.624;2024-03-08T06:15:29;3.60;99.90
62555;DHT22;48610;52.144;8.624;2024-03-08T06:18:30;3.60;99.90
62555;DHT22;48610;52.144;8.624;2024-03-08T06:21:31;3.50;99.90
62555;DHT22;48610;52.144;8.624;2024-03-08T06:24:32;3.60;99.90
62555;DHT22;48610;52.144;8.624;2024-03-08T06:27:33;3.60;99.90
62555;DHT22;48610;52.144;8.624;2024-03-08T06:30:34;3.60;99.90
62555;DHT22;48610;52.144;8.624;2024-03-08T06:33:35;3.40;99.90
62555;DHT22;48610;52.144;8.624;2024-03-08T06:36:35;3.50;99.90
62555;DHT22;48610;52.144;8.624;2024-03-08T06:39:38;3.40;99.90
62555;DHT22;48610;52.144;8.624;2024-03-08T06:42:38;3.60;99.90
62555;DHT22;48610;52.144;8.624;2024-03-08T06:45:39;3.60;99.90
62555;DHT22;48610;52.144;8.624;2024-03-08T06:48:40;3.60;99.90
62555;DHT22;48610;52.144;8.624;2024-03-08T06:51:40;3.90;99.90
62555;DHT22;48610;52.144;8.624;2024-03-08T06:54:41;3.90;99.90
62555;DHT22;48610;52.144;8.624;2024-03-08T06:57:42;3.90;99.90
62555;DHT22;48610;52.144;8.624;2024-03-08T07:00:42;4.10;99.90
62555;DHT22;48610;52.144;8.624;2024-03-08T07:03:43;4.20;99.90
62555;DHT22;48610;52.144;8.624;2024-03-08T07:06:44;4.30;99.90
62555;DHT22;48610;52.144;8.624;2024-03-08T07:09:45;4.40;99.90
62555;DHT22;48610;52.144;8.624;2024-03-08T07:12:45;4.30;99.90
62555;DHT22;48610;52.144;8.624;2024-03-08T07:15:47;4.40;99.90
62555;DHT22;48610;52.144;8.624;2024-03-08T07:18:47;4.40;99.90
62555;DHT22;48610;52.144;8.624;2024-03-08T07:21:48;4.80;99.90
62555;DHT22;48610;52.144;8.624;2024-03-08T07:24:48;5.00;99.90
62555;DHT22;48610;52.144;8.624;2024-03-08T07:28:08;5.40;99.90
62555;DHT22;48610;52.144;8.624;2024-03-08T07:31:08;5.90;99.90
62555;DHT22;48610;52.144;8.624;2024-03-08T07:34:39;6.00;99.90
62555;DHT22;48610;52.144;8.624;2024-03-08T07:37:40;5.80;99.90
62555;DHT22;48610;52.144;8.624;2024-03-08T07:40:41;5.50;99.90
62555;DHT22;48610;52.144;8.624;2024-03-08T07:43:44;5.30;99.90
62555;DHT22;48610;52.144;8.624;2024-03-08T07:46:45;5.40;99.90
62555;DHT22;48610;52.144;8.624;2024-03-08T07:49:45;5.80;99.90
62555;DHT22;48610;52.144;8.624;2024-03-08T07:52:46;6.20;99.90
62555;DHT22;48610;52.144;8.624;2024-03-08T07:55:47;6.70;99.90
62555;DHT22;48610;52.144;8.624;2024-03-08T07:58:48;6.90;99.90
62555;DHT22;48610;52.144;8.624;2024-03-08T08:01:49;6.80;99.90
62555;DHT22;48610;52.144;8.624;2024-03-08T08:04:49;7.10;99.90
62555;DHT22;48610;52.144;8.624;2024-03-08T08:07:50;7.50;99.90
62555;DHT22;48610;52.144;8.624;2024-03-08T08:10:52;7.70;99.90
62555;DHT22;48610;52.144;8.624;2024-03-08T08:13:53;7.70;99.90
62555;DHT22;48610;52.144;8.624;2024-03-08T08:16:55;7.90;99.90
62555;DHT22;48610;52.144;8.624;2024-03-08T08:19:57;7.80;99.90
62555;DHT22;48610;52.144;8.624;2024-03-08T08:22:58;7.40;99.90
62555;DHT22;48610;52.144;8.624;2024-03-08T08:25:59;7.40;99.90
62555;DHT22;48610;52.144;8.624;2024-03-08T08:29:00;7.50;99.90
62555;DHT22;48610;52.144;8.624;2024-03-08T08:32:00;7.00;99.90
62555;DHT22;48610;52.144;8.624;2024-03-08T08:35:01;7.10;99.90
62555;DHT22;48610;52.144;8.624;2024-03-08T08:38:03;7.10;99.90
62555;DHT22;48610;52.144;8.624;2024-03-08T08:41:04;7.00;99.90
62555;DHT22;48610;52.144;8.624;2024-03-08T08:44:04;7.10;99.90
62555;DHT22;48610;52.144;8.624;2024-03-08T08:47:05;7.20;99.90
62555;DHT22;48610;52.144;8.624;2024-03-08T08:50:06;7.20;99.90
62555;DHT22;48610;52.144;8.624;2024-03-08T08:53:06;7.30;99.90
62555;DHT22;48610;52.144;8.624;2024-03-08T08:56:07;7.30;99.90
62555;DHT22;48610;52.144;8.624;2024-03-08T08:59:08;7.30;99.90
62555;DHT22;48610;52.144;8.624;2024-03-08T09:02:08;7.40;99.90
62555;DHT22;48610;52.144;8.624;2024-03-08T09:05:09;7.30;99.90
62555;DHT22;48610;52.144;8.624;2024-03-08T09:08:10;7.50;99.90
62555;DHT22;48610;52.144;8.624;2024-03-08T09:11:10;7.70;99.90
62555;DHT22;48610;52.144;8.624;2024-03-08T09:14:11;7.90;99.90
62555;DHT22;48610;52.144;8.624;2024-03-08T09:17:12;8.30;99.90
62555;DHT22;48610;52.144;8.624;2024-03-08T09:20:14;8.20;99.90
62555;DHT22;48610;52.144;8.624;2024-03-08T09:23:15;8.40;99.90
62555;DHT22;48610;52.144;8.624;2024-03-08T09:26:17;8.40;99.90
62555;DHT22;48610;52.144;8.624;2024-03-08T09:29:18;8.70;99.90
62555;DHT22;48610;52.144;8.624;2024-03-08T09:32:18;8.70;99.90
62555;DHT22;48610;52.144;8.624;2024-03-08T09:35:19;8.50;99.90
62555;DHT22;48610;52.144;8.624;2024-03-08T09:38:20;8.40;99.90
62555;DHT22;48610;52.144;8.624;2024-03-08T09:41:21;8.30;99.90
62555;DHT22;48610;52.144;8.624;2024-03-08T09:44:22;8.40;99.90
62555;DHT22;48610;52.144;8.624;2024-03-08T09:47:25;8.50;99.90
62555;DHT22;48610;52.144;8.624;2024-03-08T09:50:29;8.10;99.90
62555;DHT22;48610;52.144;8.624;2024-03-08T09:53:30;8.00;99.90
62555;DHT22;48610;52.144;8.624;2024-03-08T09:56:35;8.20;99.90
62555;DHT22;48610;52.144;8.624;2024-03-08T09:59:36;8.50;99.90
62555;DHT22;48610;52.144;8.624;2024-03-08T10:02:36;8.80;99.90
62555;DHT22;48610;52.144;8.624;2024-03-08T10:05:37;9.00;99.90
62555;DHT22;48610;52.144;8.624;2024-03-08T10:08:39;9.10;99.90
62555;DHT22;48610;52.144;8.624;2024-03-08T10:11:40;9.40;99.90
62555;DHT22;48610;52.144;8.624;2024-03-08T10:14:40;9.70;99.90
62555;DHT22;48610;52.144;8.624;2024-03-08T10:17:42;9.80;99.30
62555;DHT22;48610;52.144;8.624;2024-03-08T10:20:43;10.30;98.70
62555;DHT22;48610;52.144;8.624;2024-03-08T10:23:44;11.00;97.60
62555;DHT22;48610;52.144;8.624;2024-03-08T10:26:45;10.80;98.40
62555;DHT22;48610;52.144;8.624;2024-03-08T10:29:47;10.50;97.20
62555;DHT22;48610;52.144;8.624;2024-03-08T10:32:48;10.90;97.50
62555;DHT22;48610;52.144;8.624;2024-03-08T10:35:49;10.80;96.60
62555;DHT22;48610;52.144;8.624;2024-03-08T10:38:51;10.30;97.20
62555;DHT22;48610;52.144;8.624;2024-03-08T10:41:57;10.70;97.70
62555;DHT22;48610;52.144;8.624;2024-03-08T10:45:05;10.80;97.10
62555;DHT22;48610;52.144;8.624;2024-03-08T10:48:34;11.10;97.60
62555;DHT22;48610;52.144;8.624;2024-03-08T10:51:38;11.30;95.60
62555;DHT22;48610;52.144;8.624;2024-03-08T10:54:42;11.60;96.90
62555;DHT22;48610;52.144;8.624;2024-03-08T10:57:43;11.60;95.50
62555;DHT22;48610;52.144;8.624;2024-03-08T11:00:44;11.60;95.50
62555;DHT22;48610;52.144;8.624;2024-03-08T11:03:45;11.40;96.30
62555;DHT22;48610;52.144;8.624;2024-03-08T11:06:50;12.00;95.10
62555;DHT22;48610;52.144;8.624;2024-03-08T11:09:54;12.30;96.30
62555;DHT22;48610;52.144;8.624;2024-03-08T11:12:56;12.50;95.30
62555;DHT22;48610;52.144;8.624;2024-03-08T11:15:59;12.00;94.10
62555;DHT22;48610;52.144;8.624;2024-03-08T11:19:01;11.70;95.70
62555;DHT22;48610;52.144;8.624;2024-03-08T11:22:06;12.00;94.60
62555;DHT22;48610;52.144;8.624;2024-03-08T11:25:09;11.90;95.20
62555;DHT22;48610;52.144;8.624;2024-03-08T11:28:14;11.70;95.40
62555;DHT22;48610;52.144;8.624;2024-03-08T11:31:25;11.40;95.80
62555;DHT22;48610;52.144;8.624;2024-03-08T11:34:29;11.50;94.60
62555;DHT22;48610;52.144;8.624;2024-03-08T11:37:33;11.60;95.80
62555;DHT22;48610;52.144;8.624;2024-03-08T11:40:36;11.90;96.80
62555;DHT22;48610;52.144;8.624;2024-03-08T11:43:36;12.00;94.90
62555;DHT22;48610;52.144;8.624;2024-03-08T11:46:37;11.90;95.30
62555;DHT22;48610;52.144;8.624;2024-03-08T11:49:40;11.70;97.10
62555;DHT22;48610;52.144;8.624;2024-03-08T11:52:50;11.60;96.80
62555;DHT22;48610;52.144;8.624;2024-03-08T11:55:51;11.60;96.20
62555;DHT22;48610;52.144;8.624;2024-03-08T11:58:55;11.70;95.10
62555;DHT22;48610;52.144;8.624;2024-03-08T12:02:08;11.90;95.10
62555;DHT22;48610;52.144;8.624;2024-03-08T12:05:11;12.00;94.40
62555;DHT22;48610;52.144;8.624;2024-03-08T12:08:16;11.70;94.90
62555;DHT22;48610;52.144;8.624;2024-03-08T12:11:17;11.60;94.30
62555;DHT22;48610;52.144;8.624;2024-03-08T12:14:23;11.80;95.50
62555;DHT22;48610;52.144;8.624;2024-03-08T12:17:25;11.60;93.80
62555;DHT22;48610;52.144;8.624;2024-03-08T12:20:28;11.50;94.90
62555;DHT22;48610;52.144;8.624;2024-03-08T12:23:30;11.20;95.20
62555;DHT22;48610;52.144;8.624;2024-03-08T12:26:31;10.90;95.10
62555;DHT22;48610;52.144;8.624;2024-03-08T12:29:32;11.20;97.10
62555;DHT22;48610;52.144;8.624;2024-03-08T12:32:33;11.90;96.30
62555;DHT22;48610;52.144;8.624;2024-03-08T12:35:34;12.50;93.50
62555;DHT22;48610;52.144;8.624;2024-03-08T12:38:35;12.50;94.10
62555;DHT22;48610;52.144;8.624;2024-03-08T12:41:40;13.00;93.60
62555;DHT22;48610;52.144;8.624;2024-03-08T12:44:41;13.30;92.80
62555;DHT22;48610;52.144;8.624;2024-03-08T12:47:43;13.60;93.00
62555;DHT22;48610;52.144;8.624;2024-03-08T12:50:44;13.60;92.40
62555;DHT22;48610;52.144;8.624;2024-03-08T12:53:48;13.60;93.60
62555;DHT22;48610;52.144;8.624;2024-03-08T12:56:48;14.20;92.50
62555;DHT22;48610;52.144;8.624;2024-03-08T12:59:50;14.10;93.50
62555;DHT22;48610;52.144;8.624;2024-03-08T13:02:51;12.90;93.30
62555;DHT22;48610;52.144;8.624;2024-03-08T13:05:52;12.70;93.20
62555;DHT22;48610;52.144;8.624;2024-03-08T13:08:52;12.50;93.00
62555;DHT22;48610;52.144;8.624;2024-03-08T13:11:53;12.00;93.50
62555;DHT22;48610;52.144;8.624;2024-03-08T13:14:55;11.70;95.20
62555;DHT22;48610;52.144;8.624;2024-03-08T13:17:56;12.00;93.60
62555;DHT22;48610;52.144;8.624;2024-03-08T13:21:00;11.50;95.10
62555;DHT22;48610;52.144;8.624;2024-03-08T13:24:05;11.00;94.80
62555;DHT22;48610;52.144;8.624;2024-03-08T13:27:07;10.70;95.90
62555;DHT22;48610;52.144;8.624;2024-03-08T13:30:17;10.80;96.00
62555;DHT22;48610;52.144;8.624;2024-03-08T13:33:18;11.40;96.20
62555;DHT22;48610;52.144;8.624;2024-03-08T13:36:20;11.50;95.20
62555;DHT22;48610;52.144;8.624;2024-03-08T13:39:21;11.30;96.70
62555;DHT22;48610;52.144;8.624;2024-03-08T13:42:25;11.30;96.70
62555;DHT22;48610;52.144;8.624;2024-03-08T13:45:27;11.50;96.20
62555;DHT22;48610;52.144;8.624;2024-03-08T13:48:27;11.70;95.10
62555;DHT22;48610;52.144;8.624;2024-03-08T13:51:28;12.40;94.30
62555;DHT22;48610;52.144;8.624;2024-03-08T13:54:28;12.40;93.60
62555;DHT22;48610;52.144;8.624;2024-03-08T13:57:32;12.50;94.20
62555;DHT22;48610;52.144;8.624;2024-03-08T14:00:33;12.20;94.90
62555;DHT22;48610;52.144;8.624;2024-03-08T14:03:33;11.70;94.30
62555;DHT22;48610;52.144;8.624;2024-03-08T14:06:34;11.90;95.10
62555;DHT22;48610;52.144;8.624;2024-03-08T14:09:36;12.00;94.60
62555;DHT22;48610;52.144;8.624;2024-03-08T14:12:37;11.50;95.70
62555;DHT22;48610;52.144;8.624;2024-03-08T14:15:38;11.20;95.90
62555;DHT22;48610;52.144;8.624;2024-03-08T14:18:42;11.00;96.60
62555;DHT22;48610;52.144;8.624;2024-03-08T14:21:43;11.00;96.40
62555;DHT22;48610;52.144;8.624;2024-03-08T14:24:43;11.20;96.30
62555;DHT22;48610;52.144;8.624;2024-03-08T14:27:45;11.00;96.80
62555;DHT22;48610;52.144;8.624;2024-03-08T14:30:46;10.80;97.50
62555;DHT22;48610;52.144;8.624;2024-03-08T14:33:46;11.00;98.40
62555;DHT22;48610;52.144;8.624;2024-03-08T14:36:50;11.10;96.60
62555;DHT22;48610;52.144;8.624;2024-03-08T14:39:50;11.10;97.00
62555;DHT22;48610;52.144;8.624;2024-03-08T14:42:53;11.00;96.60
62555;DHT22;48610;52.144;8.624;2024-03-08T14:45:53;11.20;96.10
62555;DHT22;48610;52.144;8.624;2024-03-08T14:48:54;11.20;97.20
62555;DHT22;48610;52.144;8.624;2024-03-08T14:51:55;11.20;98.40
62555;DHT22;48610;52.144;8.624;2024-03-08T14:54:55;11.20;96.30
62555;DHT22;48610;52.144;8.624;2024-03-08T14:57:59;11.20;96.30
62555;DHT22;48610;52.144;8.624;2024-03-08T15:00:59;11.10;96.90
62555;DHT22;48610;52.144;8.624;2024-03-08T15:04:02;10.90;97.00
62555;DHT22;48610;52.144;8.624;2024-03-08T15:07:08;11.00;96.90
62555;DHT22;48610;52.144;8.624;2024-03-08T15:10:10;11.10;97.70
62555;DHT22;48610;52.144;8.624;2024-03-08T15:13:17;11.10;96.60
62555;DHT22;48610;52.144;8.624;2024-03-08T15:16:23;11.10;97.60
62555;DHT22;48610;52.144;8.624;2024-03-08T15:19:24;11.00;96.90
62555;DHT22;48610;52.144;8.624;2024-03-08T15:22:25;11.10;96.90
62555;DHT22;48610;52.144;8.624;2024-03-08T15:25:26;11.10;96.80
62555;DHT22;48610;52.144;8.624;2024-03-08T15:28:27;11.10;97.10
62555;DHT22;48610;52.144;8.624;2024-03-08T15:31:36;10.90;97.40
62555;DHT22;48610;52.144;8.624;2024-03-08T15:34:42;10.70;97.70
62555;DHT22;48610;52.144;8.624;2024-03-08T15:37:43;10.60;97.20
62555;DHT22;48610;52.144;8.624;2024-03-08T15:40:44;10.60;97.60
62555;DHT22;48610;52.144;8.624;2024-03-08T15:43:44;10.60;97.50
62555;DHT22;48610;52.144;8.624;2024-03-08T15:46:45;10.70;97.50
62555;DHT22;48610;52.144;8.624;2024-03-08T15:49:47;10.60;98.00
62555;DHT22;48610;52.144;8.624;2024-03-08T15:52:48;10.70;97.90
62555;DHT22;48610;52.144;8.624;2024-03-08T15:55:49;10.90;97.90
62555;DHT22;48610;52.144;8.624;2024-03-08T15:58:50;10.90;97.70
62555;DHT22;48610;52.144;8.624;2024-03-08T16:01:51;10.60;97.90
62555;DHT22;48610;52.144;8.624;2024-03-08T16:04:53;10.60;97.60
62555;DHT22;48610;52.144;8.624;2024-03-08T16:07:53;10.60;98.90
62555;DHT22;48610;52.144;8.624;2024-03-08T16:10:55;10.80;98.50
62555;DHT22;48610;52.144;8.624;2024-03-08T16:13:56;10.60;97.80
62555;DHT22;48610;52.144;8.624;2024-03-08T16:16:58;10.50;99.10
62555;DHT22;48610;52.144;8.624;2024-03-08T16:19:58;10.40;98.30
62555;DHT22;48610;52.144;8.624;2024-03-08T16:22:59;10.40;98.80
62555;DHT22;48610;52.144;8.624;2024-03-08T16:26:00;10.30;99.70
62555;DHT22;48610;52.144;8.624;2024-03-08T16:29:02;10.20;98.70
62555;DHT22;48610;52.144;8.624;2024-03-08T16:32:04;10.10;99.50
62555;DHT22;48610;52.144;8.624;2024-03-08T16:35:06;9.80;99.90
62555;DHT22;48610;52.144;8.624;2024-03-08T16:38:11;9.80;99.90
62555;DHT22;48610;52.144;8.624;2024-03-08T16:41:14;9.70;99.90
62555;DHT22;48610;52.144;8.624;2024-03-08T16:44:16;9.80;99.90
62555;DHT22;48610;52.144;8.624;2024-03-08T16:47:20;9.80;99.90
62555;DHT22;48610;52.144;8.624;2024-03-08T16:50:23;9.60;99.90
62555;DHT22;48610;52.144;8.624;2024-03-08T16:53:23;9.60;99.90
62555;DHT22;48610;52.144;8.624;2024-03-08T16:56:24;9.60;99.90
62555;DHT22;48610;52.144;8.624;2024-03-08T16:59:25;9.60;99.90
62555;DHT22;48610;52.144;8.624;2024-03-08T17:02:26;9.60;99.90
62555;DHT22;48610;52.144;8.624;2024-03-08T17:05:28;9.40;99.90
62555;DHT22;48610;52.144;8.624;2024-03-08T17:08:29;9.30;99.90
62555;DHT22;48610;52.144;8.624;2024-03-08T17:11:30;9.20;99.90
62555;DHT22;48610;52.144;8.624;2024-03-08T17:14:33;9.10;99.90
62555;DHT22;48610;52.144;8.624;2024-03-08T17:17:38;8.90;99.90
62555;DHT22;48610;52.144;8.624;2024-03-08T17:20:39;9.00;99.90
62555;DHT22;48610;52.144;8.624;2024-03-08T17:23:41;9.10;99.90
62555;DHT22;48610;52.144;8.624;2024-03-08T17:26:41;9.00;99.90
62555;DHT22;48610;52.144;8.624;2024-03-08T17:29:42;9.00;99.90
62555;DHT22;48610;52.144;8.624;2024-03-08T17:32:42;9.20;99.90
62555;DHT22;48610;52.144;8.624;2024-03-08T17:35:43;9.30;99.90
62555;DHT22;48610;52.144;8.624;2024-03-08T17:38:44;9.40;99.90
62555;DHT22;48610;52.144;8.624;2024-03-08T17:41:47;9.40;99.90
62555;DHT22;48610;52.144;8.624;2024-03-08T17:44:52;9.50;99.90
62555;DHT22;48610;52.144;8.624;2024-03-08T17:47:52;9.50;99.90
62555;DHT22;48610;52.144;8.624;2024-03-08T17:50:53;9.40;99.90
62555;DHT22;48610;52.144;8.624;2024-03-08T17:53:54;9.40;99.90
62555;DHT22;48610;52.144;8.624;2024-03-08T17:56:54;8.90;99.90
62555;DHT22;48610;52.144;8.624;2024-03-08T17:59:55;9.00;99.90
62555;DHT22;48610;52.144;8.624;2024-03-08T18:02:56;8.90;99.90
62555;DHT22;48610;52.144;8.624;2024-03-08T18:05:57;9.10;99.90
62555;DHT22;48610;52.144;8.624;2024-03-08T18:08:57;9.20;99.90
62555;DHT22;48610;52.144;8.624;2024-03-08T18:11:58;9.30;99.90
62555;DHT22;48610;52.144;8.624;2024-03-08T18:14:59;9.20;99.90
62555;DHT22;48610;52.144;8.624;2024-03-08T18:18:00;9.20;99.90
62555;DHT22;48610;52.144;8.624;2024-03-08T18:21:02;9.20;99.90
62555;DHT22;48610;52.144;8.624;2024-03-08T18:24:06;9.30;99.90
62555;DHT22;48610;52.144;8.624;2024-03-08T18:27:06;9.10;99.90
62555;DHT22;48610;52.144;8.624;2024-03-08T18:30:08;9.00;99.90
62555;DHT22;48610;52.144;8.624;2024-03-08T18:33:15;8.90;99.90
62555;DHT22;48610;52.144;8.624;2024-03-08T18:36:16;8.70;99.90
62555;DHT22;48610;52.144;8.624;2024-03-08T18:39:16;8.70;99.90
62555;DHT22;48610;52.144;8.624;2024-03-08T18:42:18;8.50;99.90
62555;DHT22;48610;52.144;8.624;2024-03-08T18:45:20;8.60;99.90
62555;DHT22;48610;52.144;8.624;2024-03-08T18:48:21;8.70;99.90
62555;DHT22;48610;52.144;8.624;2024-03-08T18:51:22;8.70;99.90
62555;DHT22;48610;52.144;8.624;2024-03-08T18:54:23;8.80;99.90
62555;DHT22;48610;52.144;8.624;2024-03-08T18:57:26;8.80;99.90
62555;DHT22;48610;52.144;8.624;2024-03-08T19:00:27;8.70;99.90
62555;DHT22;48610;52.144;8.624;2024-03-08T19:03:36;8.80;99.90
62555;DHT22;48610;52.144;8.624;2024-03-08T19:06:41;8.80;99.90
62555;DHT22;48610;52.144;8.624;2024-03-08T19:09:41;8.60;99.90
62555;DHT22;48610;52.144;8.624;2024-03-08T19:12:46;8.60;99.90
62555;DHT22;48610;52.144;8.624;2024-03-08T19:15:47;8.30;99.90
62555;DHT22;48610;52.144;8.624;2024-03-08T19:18:51;8.20;99.90